Provo, UT

12:41 PM MDT on August 22, 2014 (GMT -0600)
Snake Hill Farm | Change Station
CLOSE
Current Station
Personal Weather Station
Location: Orem, UT
Elevation: 4741 ft
Nearby Weather Stations

Elev 4741 ft 40.26 °N, 111.69 °W | Updated 9 seconds ago

Scattered Clouds
Scattered Clouds
80.1 °F
Feels Like 79 °F
N
0.0
Wind Variable Wind from South
Gusts 4.0 mph

Today
High -- | Low -- °F
--% Chance of Precip.
Yesterday
High -- | Low -- °F
Precip. -- in
6:44 AM 8:13 PM
Waning Crescent, 7% visible
Pressure 30.06 in
Visibility 15.0 miles
Clouds Scattered Clouds 15000 ft
Heat Index 79 °F
Dew Point 48 °F
Humidity 33%
Rainfall 0.00 in
Snow Depth Not available.
UV 3 out of 12
Pollen 7.90 out of 12
Air Quality Not available.
Flu Activity Not available.
METAR KPVU 221549Z 12005KT 15SM SCT150 22/08 A3006

More Conditions Fewer Conditions

Pressure 30.06 in
Visibility 15.0 miles
Clouds Scattered Clouds 15000 ft
Heat Index 79 °F
Dew Point 48 °F
Humidity 33%
Rainfall 0.00 in
Snow Depth Not available.
UV 3 out of 12
Pollen 7.90 out of 12
Air Quality Not available.
Flu Activity Not available.
METAR KPVU 221549Z 12005KT 15SM SCT150 22/08 A3006

More Conditions Fewer Conditions

10-Day Weather Forecast

Almanac

Astronomy

Aug. 22, 2014 Rise Set
Actual Time 6:44 AM MDT 8:13 PM MDT
Civil Twilight 6:16 AM MDT 8:42 PM MDT
Nautical Twilight 5:41 AM MDT 9:16 PM MDT
Astronomical Twilight 5:05 AM MDT 9:52 PM MDT
Moon 4:10 AM MDT 6:24 PM MDT
Length of Visible Light 14h 25m
Length of Day
13h 28m
Tomorrow will be 2m 27s shorter.
Waning Crescent, 7% of the Moon is Illuminated
Today
Waning Crescent
Aug 25
New
Sep 2
First Quarter
Sep 8
Full
Sep 15
Last Quarter

Today's Extremes

State Highs State Lows

Community

WunderPhotos

Upload Photos

1,746,216 photos uploaded!

Nearby

Snow Depth

Station Depth Elevation
Clear Creek #2 0 in 8300 ft
Hardscrabble 0 in 7250 ft
Smith & Morehouse 0 in 7600 ft
Trial Lake 1 in 9960 ft
Seeley Creek 0 in 10000 ft

Earthquake Activity

City Distance Mag. Time & Date
No recent earthquake activity has been reported nearby.
Minimum magnitude displayed is 2.5.

Coastal Water Temperatures

Place Temperature
No Stations Reporting

Nearby Weather Stations